createdAt,value
2018-01-17T00:00:17.527Z,12.30
2018-01-17T00:02:45.725Z,9.07
2018-01-17T00:05:13.156Z,15.20
2018-01-17T00:07:41.373Z,15.20
2018-01-17T00:10:09.139Z,9.63
2018-01-17T00:12:36.556Z,21.67
2018-01-17T00:15:04.154Z,15.17
2018-01-17T00:17:31.596Z,12.07
2018-01-17T00:19:59.024Z,13.23
2018-01-17T00:22:39.146Z,7.03
2018-01-17T00:25:06.682Z,16.47
2018-01-17T00:27:34.227Z,11.30
2018-01-17T00:30:01.696Z,13.33
2018-01-17T00:32:29.132Z,13.33
2018-01-17T00:34:56.551Z,15.30
2018-01-17T00:37:24.272Z,7.40
2018-01-17T00:39:51.728Z,10.10
2018-01-17T00:42:19.161Z,8.90
2018-01-17T00:44:46.596Z,13.93
2018-01-17T00:47:14.036Z,12.33
2018-01-17T00:49:41.471Z,11.27
2018-01-17T00:52:09.165Z,16.43
2018-01-17T00:54:36.612Z,15.87
2018-01-17T00:57:04.035Z,17.67
2018-01-17T00:59:32.348Z,8.73
2018-01-17T01:01:59.767Z,14.50
2018-01-17T01:04:27.980Z,8.83
2018-01-17T01:06:55.416Z,7.13
2018-01-17T01:09:22.846Z,10.13
2018-01-17T01:11:50.272Z,12.63
2018-01-17T01:14:17.784Z,10.27
2018-01-17T01:16:45.212Z,15.60
2018-01-17T01:19:12.648Z,10.83
2018-01-17T01:21:40.156Z,16.37
2018-01-17T01:24:07.576Z,4.67
2018-01-17T01:26:35.783Z,12.97
2018-01-17T01:29:03.223Z,4.63
2018-01-17T01:31:30.702Z,8.33
2018-01-17T01:33:58.122Z,10.87
2018-01-17T01:36:26.332Z,13.80
2018-01-17T01:38:53.751Z,9.53
2018-01-17T01:41:21.941Z,11.90
2018-01-17T01:43:49.415Z,5.57
2018-01-17T01:46:16.845Z,10.03
2018-01-17T01:48:56.104Z,7.53
2018-01-17T01:51:23.537Z,11.67
2018-01-17T01:53:51.023Z,14.47
2018-01-17T01:56:18.459Z,10.90
2018-01-17T01:58:45.901Z,7.63
2018-01-17T02:01:14.115Z,9.80
2018-01-17T02:03:41.562Z,13.60
2018-01-17T02:06:08.980Z,7.07
2018-01-17T02:08:37.167Z,9.00
2018-01-17T02:11:04.716Z,12.77
2018-01-17T02:13:32.143Z,15.43
2018-01-17T02:15:59.640Z,12.97
2018-01-17T02:18:27.093Z,8.60
2018-01-17T02:20:54.541Z,9.57
2018-01-17T02:23:22.004Z,12.23
2018-01-17T02:25:49.450Z,14.63
2018-01-17T02:28:16.924Z,14.03
2018-01-17T02:30:44.368Z,18.77
2018-01-17T02:33:12.044Z,11.40
2018-01-17T02:35:39.500Z,12.70
2018-01-17T02:38:06.926Z,15.83
2018-01-17T02:40:40.192Z,11.90
2018-01-17T02:43:08.427Z,17.53
2018-01-17T02:45:35.843Z,9.33
2018-01-17T02:48:04.359Z,10.77
2018-01-17T02:50:31.784Z,13.47
2018-01-17T02:52:59.207Z,13.50
2018-01-17T02:55:26.645Z,14.03
2018-01-17T02:57:54.108Z,11.77
2018-01-17T03:00:21.513Z,8.23
2018-01-17T03:02:48.956Z,12.20
2018-01-17T03:05:17.148Z,11.97
2018-01-17T03:07:44.571Z,10.97
2018-01-17T03:10:12.080Z,10.20
2018-01-17T03:12:39.500Z,9.83
2018-01-17T03:15:07.712Z,13.47
2018-01-17T03:17:35.142Z,7.60
2018-01-17T03:20:02.568Z,11.70
2018-01-17T03:22:30.091Z,7.07
2018-01-17T03:24:57.854Z,8.37
2018-01-17T03:27:25.288Z,11.77
2018-01-17T03:29:52.706Z,7.10
2018-01-17T03:32:20.228Z,6.97
2018-01-17T03:34:47.657Z,15.33
2018-01-17T03:37:15.137Z,7.43
2018-01-17T03:39:42.900Z,5.67
2018-01-17T03:42:10.352Z,9.60
2018-01-17T03:44:37.751Z,11.87
2018-01-17T03:47:05.273Z,9.00
2018-01-17T03:49:32.696Z,9.77
2018-01-17T03:52:00.120Z,13.97
2018-01-17T03:54:27.556Z,7.93
2018-01-17T03:56:54.990Z,14.53
2018-01-17T03:59:22.416Z,9.63
2018-01-17T04:01:50.617Z,7.23
2018-01-17T04:04:18.046Z,12.07
2018-01-17T04:06:46.235Z,11.83
2018-01-17T04:09:13.669Z,6.23
2018-01-17T04:11:41.860Z,9.53
2018-01-17T04:14:10.043Z,12.17
2018-01-17T04:16:37.481Z,7.03
2018-01-17T04:19:05.672Z,11.20
2018-01-17T04:21:33.097Z,8.93
2018-01-17T04:24:00.528Z,6.77
2018-01-17T04:26:27.954Z,6.60
2018-01-17T04:28:55.376Z,10.37
2018-01-17T04:31:23.572Z,5.93
2018-01-17T04:33:50.997Z,5.47
2018-01-17T04:36:19.188Z,7.87
2018-01-17T04:38:47.389Z,5.33
2018-01-17T04:41:14.861Z,7.90
2018-01-17T04:43:42.311Z,9.20
2018-01-17T04:46:09.786Z,9.60
2018-01-17T04:48:37.210Z,7.03
2018-01-17T04:51:04.688Z,8.63
2018-01-17T04:53:32.144Z,6.57
2018-01-17T04:55:59.609Z,10.73
2018-01-17T04:58:27.073Z,8.77
2018-01-17T05:00:54.520Z,9.03
2018-01-17T05:03:21.941Z,3.17
2018-01-17T05:05:50.132Z,11.80
2018-01-17T05:08:17.603Z,13.93
2018-01-17T05:10:45.036Z,11.30
2018-01-17T05:13:12.521Z,5.23
2018-01-17T05:15:39.955Z,7.00
2018-01-17T05:18:07.453Z,4.53
2018-01-17T05:20:34.992Z,6.23
2018-01-17T05:23:02.438Z,5.83
2018-01-17T05:25:29.860Z,9.77
2018-01-17T05:27:58.052Z,5.57
2018-01-17T05:30:25.538Z,11.40
2018-01-17T05:32:52.991Z,6.20
2018-01-17T05:35:20.483Z,8.63
2018-01-17T05:37:47.915Z,6.40
2018-01-17T05:40:15.340Z,9.53
2018-01-17T05:42:42.835Z,5.07
2018-01-17T05:45:10.269Z,5.30
2018-01-17T05:47:37.685Z,8.53
2018-01-17T05:50:05.928Z,7.57
2018-01-17T05:52:33.664Z,9.37
2018-01-17T05:55:01.088Z,14.07
2018-01-17T05:57:29.279Z,9.77
2018-01-17T05:59:56.712Z,8.37
2018-01-17T06:02:24.224Z,14.50
2018-01-17T06:04:51.656Z,9.43
2018-01-17T06:07:19.136Z,9.30
2018-01-17T06:09:46.556Z,8.67
2018-01-17T06:12:14.760Z,8.03
2018-01-17T06:14:42.228Z,8.67
2018-01-17T06:17:09.660Z,10.40
2018-01-17T06:19:37.135Z,9.27
2018-01-17T06:22:04.540Z,9.10
2018-01-17T06:24:32.066Z,8.80
2018-01-17T06:26:59.490Z,10.03
2018-01-17T06:29:26.933Z,7.13
2018-01-17T06:31:55.129Z,9.00
2018-01-17T06:34:22.536Z,8.20
2018-01-17T06:36:49.965Z,4.70
2018-01-17T06:39:17.414Z,9.47
2018-01-17T06:41:44.840Z,12.67
2018-01-17T06:44:12.591Z,5.90
2018-01-17T06:46:39.692Z,8.07
2018-01-17T06:49:07.114Z,8.43
2018-01-17T06:51:34.560Z,6.93
2018-01-17T06:54:02.756Z,6.20
2018-01-17T06:56:30.176Z,9.00
2018-01-17T06:58:57.609Z,8.03
2018-01-17T07:01:25.149Z,10.97
2018-01-17T07:03:52.597Z,7.73
2018-01-17T07:06:20.063Z,6.20
2018-01-17T07:08:47.490Z,9.80
2018-01-17T07:11:15.012Z,6.00
2018-01-17T07:13:42.454Z,14.93
2018-01-17T07:16:09.992Z,9.20
2018-01-17T07:18:37.451Z,8.73
2018-01-17T07:21:04.898Z,13.60
2018-01-17T07:23:32.324Z,11.07
2018-01-17T07:26:00.523Z,10.67
2018-01-17T07:28:28.000Z,11.03
2018-01-17T07:30:55.450Z,14.20
2018-01-17T07:33:22.868Z,14.53
2018-01-17T07:35:51.069Z,8.97
2018-01-17T07:38:18.496Z,13.67
2018-01-17T07:40:46.000Z,10.23
2018-01-17T07:43:13.444Z,12.73
2018-01-17T07:45:40.904Z,23.47
2018-01-17T07:48:08.358Z,14.20
2018-01-17T07:50:35.780Z,16.80
2018-01-17T07:53:03.976Z,10.20
2018-01-17T07:55:31.400Z,18.50
2018-01-17T07:57:59.624Z,18.03
2018-01-17T08:00:27.084Z,14.03
2018-01-17T08:02:54.573Z,18.80
2018-01-17T08:05:22.008Z,19.30
2018-01-17T08:07:49.436Z,17.20
2018-01-17T08:10:16.913Z,12.20
2018-01-17T08:12:44.344Z,14.10
2018-01-17T08:15:11.767Z,18.93
2018-01-17T08:17:39.204Z,11.07
2018-01-17T08:20:06.640Z,14.40
2018-01-17T08:22:34.109Z,14.87
2018-01-17T08:25:01.519Z,8.20
2018-01-17T08:27:29.736Z,11.27
2018-01-17T08:29:57.160Z,17.30
2018-01-17T08:32:24.598Z,11.83
2018-01-17T08:34:52.801Z,10.53
2018-01-17T08:37:20.268Z,8.53
2018-01-17T08:39:47.723Z,6.90
2018-01-17T08:42:15.184Z,8.97
2018-01-17T08:44:47.556Z,13.97
2018-01-17T08:47:15.740Z,8.97
2018-01-17T08:49:43.205Z,10.77
2018-01-17T08:52:10.628Z,10.10
2018-01-17T08:54:38.104Z,10.00
2018-01-17T08:57:05.508Z,11.43
2018-01-17T08:59:33.029Z,9.33
2018-01-17T09:02:00.610Z,10.97
2018-01-17T09:04:28.034Z,9.67
2018-01-17T09:06:55.500Z,11.93
2018-01-17T09:09:22.936Z,12.27
2018-01-17T09:11:50.417Z,9.93
2018-01-17T09:14:17.825Z,11.07
2018-01-17T09:16:46.052Z,10.13
2018-01-17T09:19:13.476Z,13.60
2018-01-17T09:21:40.911Z,10.97
2018-01-17T09:24:09.116Z,10.87
2018-01-17T09:26:36.592Z,13.23
2018-01-17T09:29:04.028Z,10.80
2018-01-17T09:31:31.602Z,15.33
2018-01-17T09:33:59.060Z,9.07
2018-01-17T09:36:26.484Z,12.40
2018-01-17T09:38:54.820Z,15.83
2018-01-17T09:41:22.275Z,9.60
2018-01-17T09:43:49.683Z,9.37
2018-01-17T09:46:17.168Z,10.70
2018-01-17T09:48:44.632Z,13.97
2018-01-17T09:51:12.056Z,18.07
2018-01-17T09:53:39.500Z,12.50
2018-01-17T09:56:07.687Z,9.50
2018-01-17T09:58:35.892Z,9.93
2018-01-17T10:01:03.322Z,11.93
2018-01-17T10:03:30.804Z,12.83
2018-01-17T10:05:58.260Z,17.43
2018-01-17T10:08:25.988Z,9.63
2018-01-17T10:10:54.206Z,17.73
2018-01-17T10:13:21.688Z,15.70
2018-01-17T10:15:49.212Z,14.67
2018-01-17T10:18:16.640Z,10.97
2018-01-17T10:20:44.132Z,16.70
2018-01-17T10:23:11.578Z,14.93
2018-01-17T10:25:39.040Z,12.77
2018-01-17T10:28:06.467Z,11.37
2018-01-17T10:30:33.908Z,9.53
2018-01-17T10:33:02.132Z,17.10
2018-01-17T10:35:29.588Z,14.83
2018-01-17T10:37:57.056Z,7.90
2018-01-17T10:40:24.500Z,6.73
2018-01-17T10:42:52.010Z,9.00
2018-01-17T10:45:19.669Z,8.47
2018-01-17T10:47:47.180Z,10.73
2018-01-17T10:50:14.643Z,11.40
2018-01-17T10:52:42.077Z,10.73
2018-01-17T10:55:09.565Z,8.23
2018-01-17T10:57:36.988Z,8.50
2018-01-17T11:00:04.432Z,10.60
2018-01-17T11:02:32.644Z,11.20
2018-01-17T11:05:00.100Z,9.30
2018-01-17T11:07:27.540Z,8.90
2018-01-17T11:09:54.988Z,11.20
2018-01-17T11:12:22.472Z,6.83
2018-01-17T11:14:49.907Z,10.03
2018-01-17T11:17:17.334Z,10.23
2018-01-17T11:19:45.536Z,16.63
2018-01-17T11:22:13.017Z,10.57
2018-01-17T11:24:40.477Z,11.67
2018-01-17T11:27:07.935Z,11.13
2018-01-17T11:29:35.368Z,16.03
2018-01-17T11:32:02.802Z,8.80
2018-01-17T11:34:30.988Z,9.83
2018-01-17T11:36:58.429Z,10.33
2018-01-17T11:39:26.648Z,10.53
2018-01-17T11:41:54.077Z,10.10
2018-01-17T11:44:21.510Z,10.73
2018-01-17T11:46:49.704Z,9.53
2018-01-17T11:49:17.134Z,10.87
2018-01-17T11:51:44.568Z,12.30
2018-01-17T11:54:12.039Z,16.90
2018-01-17T11:56:39.451Z,20.43
2018-01-17T11:59:06.880Z,17.97
2018-01-17T12:01:35.101Z,26.70
2018-01-17T12:04:02.570Z,20.90
2018-01-17T12:06:30.322Z,25.03
2018-01-17T12:08:57.754Z,14.37
2018-01-17T12:11:25.182Z,18.23
2018-01-17T12:13:52.617Z,16.13
2018-01-17T12:16:20.153Z,22.60
2018-01-17T12:18:47.612Z,12.00
2018-01-17T12:21:15.149Z,12.03
2018-01-17T12:23:42.627Z,16.67
2018-01-17T12:26:10.080Z,15.27
2018-01-17T12:28:37.549Z,9.93
2018-01-17T12:31:04.935Z,13.33
2018-01-17T12:33:32.364Z,16.40
2018-01-17T12:35:59.821Z,12.23
2018-01-17T12:38:27.264Z,12.40
2018-01-17T12:40:54.716Z,18.27
2018-01-17T12:43:22.156Z,12.50
2018-01-17T12:45:49.598Z,15.87
2018-01-17T12:48:17.980Z,15.13
2018-01-17T12:50:46.188Z,12.00
2018-01-17T12:53:13.616Z,12.27
2018-01-17T12:55:41.100Z,13.97
2018-01-17T12:58:08.548Z,12.43
2018-01-17T13:00:35.968Z,11.40
2018-01-17T13:03:04.187Z,16.10
2018-01-17T13:05:31.636Z,21.83
2018-01-17T13:07:59.056Z,24.87
2018-01-17T13:10:27.275Z,13.67
2018-01-17T13:12:54.736Z,21.83
2018-01-17T13:15:22.164Z,13.90
2018-01-17T13:17:49.648Z,21.70
2018-01-17T13:20:17.094Z,22.83
2018-01-17T13:22:44.516Z,16.90
2018-01-17T13:25:12.736Z,16.33
2018-01-17T13:27:40.192Z,20.13
2018-01-17T13:30:07.623Z,18.67
2018-01-17T13:32:35.069Z,15.00
2018-01-17T13:35:02.773Z,14.47
2018-01-17T13:37:30.196Z,13.80
2018-01-17T13:39:57.616Z,15.50
2018-01-17T13:42:25.140Z,15.00
2018-01-17T13:44:52.587Z,25.83
2018-01-17T13:47:20.111Z,25.20
2018-01-17T13:49:47.512Z,22.27
2018-01-17T13:52:14.992Z,19.60
2018-01-17T13:54:42.441Z,15.33
2018-01-17T13:57:09.996Z,18.33
2018-01-17T13:59:37.420Z,17.97
2018-01-17T14:02:04.859Z,18.37
2018-01-17T14:04:33.304Z,17.70
2018-01-17T14:07:00.746Z,24.43
2018-01-17T14:09:28.171Z,19.40
2018-01-17T14:11:55.644Z,14.87
2018-01-17T14:14:23.078Z,30.50
2018-01-17T14:16:50.568Z,16.87
2018-01-17T14:19:18.012Z,17.80
2018-01-17T14:21:45.440Z,25.40
2018-01-17T14:24:13.629Z,20.20
2018-01-17T14:26:41.424Z,21.67
2018-01-17T14:29:08.852Z,14.07
2018-01-17T14:31:36.291Z,15.60
2018-01-17T14:34:04.481Z,14.30
2018-01-17T14:36:31.904Z,16.43
2018-01-17T14:39:00.104Z,22.53
2018-01-17T14:41:27.538Z,15.07
2018-01-17T14:43:55.740Z,16.40
2018-01-17T14:46:23.172Z,20.13
2018-01-17T14:48:50.884Z,18.27
2018-01-17T14:51:18.341Z,19.87
2018-01-17T14:53:45.808Z,15.73
2018-01-17T14:56:13.252Z,18.87
2018-01-17T14:58:40.684Z,15.07
2018-01-17T15:01:08.878Z,20.67
2018-01-17T15:03:36.338Z,18.63
2018-01-17T15:06:03.746Z,17.20
2018-01-17T15:08:31.999Z,17.70
2018-01-17T15:10:59.432Z,15.53
2018-01-17T15:13:26.885Z,27.10
2018-01-17T15:15:54.315Z,18.07
2018-01-17T15:18:22.508Z,13.23
2018-01-17T15:20:49.932Z,18.70
2018-01-17T15:23:18.137Z,18.17
2018-01-17T15:25:45.579Z,20.50
2018-01-17T15:28:13.764Z,16.53
2018-01-17T15:30:41.252Z,21.67
2018-01-17T15:33:08.686Z,19.17
2018-01-17T15:35:36.116Z,24.27
2018-01-17T15:38:04.324Z,15.73
2018-01-17T15:40:31.777Z,18.00
2018-01-17T15:42:59.248Z,17.53
2018-01-17T15:45:27.433Z,17.33
2018-01-17T15:47:54.912Z,14.40
2018-01-17T15:50:22.450Z,15.90
2018-01-17T15:52:50.006Z,21.50
2018-01-17T15:55:17.444Z,15.73
2018-01-17T15:57:44.872Z,23.27
2018-01-17T16:00:13.069Z,22.50
2018-01-17T16:02:40.511Z,16.13
2018-01-17T16:05:07.932Z,19.50
2018-01-17T16:07:35.458Z,17.90
2018-01-17T16:10:03.183Z,25.23
2018-01-17T16:12:31.365Z,21.37
2018-01-17T16:14:58.822Z,28.77
2018-01-17T16:17:26.264Z,20.83
2018-01-17T16:19:54.486Z,14.60
2018-01-17T16:22:21.929Z,23.37
2018-01-17T16:24:49.369Z,20.20
2018-01-17T16:27:16.789Z,20.93
2018-01-17T16:29:44.304Z,23.50
2018-01-17T16:32:11.745Z,28.23
2018-01-17T16:34:39.164Z,18.57
2018-01-17T16:37:08.104Z,22.57
2018-01-17T16:39:35.589Z,17.57
2018-01-17T16:42:03.021Z,19.13
2018-01-17T16:44:30.484Z,21.73
2018-01-17T16:46:57.935Z,24.43
2018-01-17T16:49:25.360Z,15.60
2018-01-17T16:51:53.574Z,28.40
2018-01-17T16:54:21.257Z,34.37
2018-01-17T16:56:48.688Z,21.40
2018-01-17T16:59:16.133Z,21.73
2018-01-17T17:01:43.915Z,15.83
2018-01-17T17:04:11.340Z,16.87
2018-01-17T17:06:38.768Z,14.50
2018-01-17T17:09:06.279Z,20.40
2018-01-17T17:11:33.740Z,19.00
2018-01-17T17:14:01.200Z,19.63
2018-01-17T17:16:28.864Z,16.47
2018-01-17T17:18:56.320Z,27.97
2018-01-17T17:21:23.748Z,26.60
2018-01-17T17:23:51.440Z,24.53
2018-01-17T17:26:18.893Z,24.13
2018-01-17T17:28:46.316Z,23.80
2018-01-17T17:31:14.520Z,17.80
2018-01-17T17:33:41.951Z,20.37
2018-01-17T17:36:10.165Z,19.77
2018-01-17T17:38:37.617Z,26.13
2018-01-17T17:41:05.044Z,26.93
2018-01-17T17:43:32.533Z,17.17
2018-01-17T17:46:00.056Z,24.83
2018-01-17T17:48:27.512Z,19.23
2018-01-17T17:50:54.976Z,17.17
2018-01-17T17:53:22.412Z,20.10
2018-01-17T17:55:49.836Z,19.53
2018-01-17T17:58:18.024Z,22.43
2018-01-17T18:00:45.466Z,26.27
2018-01-17T18:03:13.680Z,17.00
2018-01-17T18:05:41.116Z,16.97
2018-01-17T18:08:08.597Z,20.90
2018-01-17T18:10:36.032Z,15.93
2018-01-17T18:13:03.465Z,15.60
2018-01-17T18:15:31.664Z,14.13
2018-01-17T18:17:59.088Z,16.30
2018-01-17T18:20:27.286Z,19.13
2018-01-17T18:22:55.482Z,20.57
2018-01-17T18:25:22.941Z,14.20
2018-01-17T18:27:50.355Z,9.43
2018-01-17T18:30:18.889Z,15.83
2018-01-17T18:32:46.340Z,12.03
2018-01-17T18:35:13.764Z,15.13
2018-01-17T18:37:42.194Z,12.83
2018-01-17T18:40:09.640Z,15.67
2018-01-17T18:42:37.080Z,12.37
2018-01-17T18:45:04.516Z,14.00
2018-01-17T18:47:32.723Z,16.57
2018-01-17T18:50:00.176Z,17.73
2018-01-17T18:52:27.592Z,16.07
2018-01-17T18:54:55.815Z,17.03
2018-01-17T18:57:23.240Z,17.53
2018-01-17T18:59:50.721Z,16.23
2018-01-17T19:02:18.213Z,18.43
2018-01-17T19:04:45.632Z,15.47
2018-01-17T19:07:13.071Z,14.30
2018-01-17T19:09:40.503Z,23.70
2018-01-17T19:12:08.703Z,15.77
2018-01-17T19:14:36.145Z,18.63
2018-01-17T19:17:04.351Z,12.13
2018-01-17T19:19:31.812Z,16.43
2018-01-17T19:21:59.259Z,16.83
2018-01-17T19:24:26.757Z,29.13
2018-01-17T19:26:54.192Z,26.80
2018-01-17T19:29:21.628Z,28.10
2018-01-17T19:31:49.052Z,20.03
2018-01-17T19:34:17.276Z,28.70
2018-01-17T19:36:44.732Z,19.17
2018-01-17T19:39:12.293Z,21.53
2018-01-17T19:41:39.752Z,26.67
2018-01-17T19:44:07.199Z,16.63
2018-01-17T19:46:34.644Z,22.50
2018-01-17T19:49:02.069Z,12.70
2018-01-17T19:51:30.274Z,25.37
2018-01-17T19:53:57.712Z,17.70
2018-01-17T19:56:25.928Z,26.03
2018-01-17T19:58:53.384Z,21.87
2018-01-17T20:01:20.808Z,18.57
2018-01-17T20:03:48.296Z,19.33
2018-01-17T20:06:16.072Z,14.50
2018-01-17T20:08:43.500Z,20.07
2018-01-17T20:11:10.980Z,23.37
2018-01-17T20:13:38.630Z,25.67
2018-01-17T20:16:06.059Z,22.63
2018-01-17T20:18:34.261Z,19.13
2018-01-17T20:21:01.941Z,19.57
2018-01-17T20:23:29.388Z,21.90
2018-01-17T20:25:56.828Z,19.87
2018-01-17T20:28:24.512Z,20.73
2018-01-17T20:30:51.969Z,22.73
2018-01-17T20:33:19.432Z,19.20
2018-01-17T20:35:47.200Z,19.13
2018-01-17T20:38:14.652Z,19.97
2018-01-17T20:40:42.089Z,21.00
2018-01-17T20:43:09.532Z,14.87
2018-01-17T20:45:36.965Z,18.63
2018-01-17T20:48:05.196Z,19.57
2018-01-17T20:50:32.638Z,25.23
2018-01-17T20:53:00.112Z,20.73
2018-01-17T20:55:27.569Z,25.23
2018-01-17T20:57:55.011Z,26.73
2018-01-17T21:00:22.444Z,26.87
2018-01-17T21:02:49.876Z,20.43
2018-01-17T21:05:17.318Z,17.90
2018-01-17T21:07:44.844Z,12.97
2018-01-17T21:10:12.268Z,24.23
2018-01-17T21:12:40.600Z,22.67
2018-01-17T21:15:08.024Z,29.20
2018-01-17T21:17:35.453Z,21.33
2018-01-17T21:20:03.652Z,21.30
2018-01-17T21:22:31.085Z,15.13
2018-01-17T21:24:59.317Z,13.23
2018-01-17T21:27:27.061Z,23.40
2018-01-17T21:29:54.520Z,16.00
2018-01-17T21:32:21.973Z,20.53
2018-01-17T21:34:49.402Z,17.17
2018-01-17T21:37:17.614Z,18.30
2018-01-17T21:39:45.041Z,17.00
2018-01-17T21:42:18.284Z,15.87
2018-01-17T21:44:51.364Z,11.17
2018-01-17T21:47:19.041Z,16.47
2018-01-17T21:49:46.567Z,15.93
2018-01-17T21:52:14.033Z,19.57
2018-01-17T21:54:41.768Z,23.70
2018-01-17T21:57:09.249Z,14.60
2018-01-17T21:59:36.680Z,17.00
2018-01-17T22:02:04.128Z,23.10
2018-01-17T22:04:32.335Z,26.60
2018-01-17T22:06:59.753Z,9.70
2018-01-17T22:09:28.076Z,15.37
2018-01-17T22:11:55.496Z,19.27
2018-01-17T22:14:22.985Z,15.47
2018-01-17T22:16:50.434Z,15.00
2018-01-17T22:19:17.840Z,15.80
2018-01-17T22:21:45.272Z,12.67
2018-01-17T22:24:12.712Z,21.70
2018-01-17T22:26:40.132Z,14.63
2018-01-17T22:29:08.332Z,14.40
2018-01-17T22:31:35.777Z,11.80
2018-01-17T22:34:03.205Z,17.10
2018-01-17T22:36:32.301Z,18.87
2018-01-17T22:39:00.504Z,18.80
2018-01-17T22:41:27.944Z,18.60
2018-01-17T22:43:56.184Z,12.43
2018-01-17T22:46:23.723Z,24.10
2018-01-17T22:48:51.161Z,12.47
2018-01-17T22:51:18.627Z,16.97
2018-01-17T22:53:46.105Z,14.67
2018-01-17T22:56:13.516Z,23.83
2018-01-17T22:58:41.008Z,22.63
2018-01-17T23:01:08.441Z,22.33
2018-01-17T23:03:35.874Z,14.43
2018-01-17T23:06:04.064Z,19.97
2018-01-17T23:08:31.500Z,25.47
2018-01-17T23:10:59.692Z,18.43
2018-01-17T23:13:27.121Z,16.23
2018-01-17T23:15:54.572Z,20.53
2018-01-17T23:18:22.803Z,17.60
2018-01-17T23:20:50.332Z,14.47
2018-01-17T23:23:18.855Z,16.30
2018-01-17T23:25:46.298Z,12.87
2018-01-17T23:28:13.759Z,25.43
2018-01-17T23:30:41.216Z,14.67
2018-01-17T23:33:08.670Z,29.90
2018-01-17T23:35:36.085Z,19.17
2018-01-17T23:38:04.662Z,22.10
2018-01-17T23:40:32.041Z,22.07
2018-01-17T23:42:59.469Z,24.43
2018-01-17T23:45:26.903Z,14.77
2018-01-17T23:47:54.339Z,18.47
2018-01-17T23:50:21.764Z,25.40
2018-01-17T23:52:49.203Z,23.23
2018-01-17T23:55:17.399Z,16.13
2018-01-17T23:57:44.827Z,19.00
